createdAt,value
2018-06-19T00:02:03.168Z,3.50
2018-06-19T00:04:31.215Z,3.20
2018-06-19T00:06:59.271Z,4.00
2018-06-19T00:09:27.321Z,3.60
2018-06-19T00:11:55.447Z,4.00
2018-06-19T00:14:23.595Z,3.57
2018-06-19T00:16:51.771Z,3.60
2018-06-19T00:19:19.894Z,3.83
2018-06-19T00:21:50.572Z,3.53
2018-06-19T00:24:18.645Z,3.67
2018-06-19T00:26:46.713Z,3.23
2018-06-19T00:29:14.820Z,3.67
2018-06-19T00:31:42.888Z,3.73
2018-06-19T00:34:10.964Z,3.83
2018-06-19T00:36:39.149Z,3.73
2018-06-19T00:39:08.762Z,3.60
2018-06-19T00:41:36.896Z,3.27
2018-06-19T00:44:04.959Z,3.60
2018-06-19T00:46:34.084Z,3.80
2018-06-19T00:49:01.949Z,3.83
2018-06-19T00:51:30.005Z,3.83
2018-06-19T00:53:58.148Z,3.70
2018-06-19T00:56:37.979Z,3.80
2018-06-19T00:59:06.056Z,3.83
2018-06-19T01:01:34.108Z,3.40
2018-06-19T01:04:02.184Z,3.77
2018-06-19T01:06:30.247Z,3.27
2018-06-19T01:08:58.336Z,3.60
2018-06-19T01:11:26.399Z,3.60
2018-06-19T01:13:54.452Z,3.30
2018-06-19T01:16:22.516Z,3.97
2018-06-19T01:18:50.588Z,3.60
2018-06-19T01:21:18.680Z,3.57
2018-06-19T01:23:46.779Z,3.87
2018-06-19T01:26:14.897Z,3.70
2018-06-19T01:28:43.039Z,3.83
2018-06-19T01:31:11.028Z,3.63
2018-06-19T01:33:39.132Z,3.50
2018-06-19T01:36:07.184Z,3.70
2018-06-19T01:38:35.240Z,3.63
2018-06-19T01:41:03.177Z,3.87
2018-06-19T01:43:31.232Z,3.57
2018-06-19T01:45:59.315Z,3.47
2018-06-19T01:48:27.408Z,3.63
2018-06-19T01:50:55.539Z,3.73
2018-06-19T01:53:23.602Z,3.80
2018-06-19T01:55:51.652Z,3.70
2018-06-19T01:58:19.852Z,3.93
2018-06-19T02:00:47.927Z,3.47
2018-06-19T02:03:16.068Z,3.30
2018-06-19T02:05:44.164Z,3.43
2018-06-19T02:08:12.370Z,3.50
2018-06-19T02:10:40.437Z,3.50
2018-06-19T02:13:08.589Z,3.70
2018-06-19T02:15:36.640Z,3.40
2018-06-19T02:18:04.880Z,3.83
2018-06-19T02:20:32.948Z,3.90
2018-06-19T02:23:01.020Z,3.60
2018-06-19T02:25:29.085Z,3.83
2018-06-19T02:27:57.301Z,4.03
2018-06-19T02:30:25.361Z,4.37
2018-06-19T02:32:53.425Z,4.50
2018-06-19T02:35:21.558Z,4.40
2018-06-19T02:37:49.650Z,4.10
2018-06-19T02:40:17.798Z,4.40
2018-06-19T02:42:45.905Z,3.93
2018-06-19T02:45:13.969Z,4.37
2018-06-19T02:47:42.026Z,4.43
2018-06-19T02:50:10.080Z,4.47
2018-06-19T02:52:38.227Z,4.23
2018-06-19T02:55:06.279Z,4.53
2018-06-19T02:57:34.336Z,4.20
2018-06-19T03:00:02.392Z,4.23
2018-06-19T03:02:30.478Z,4.87
2018-06-19T03:04:58.540Z,3.90
2018-06-19T03:07:26.653Z,4.43
2018-06-19T03:09:54.789Z,4.70
2018-06-19T03:12:22.993Z,4.67
2018-06-19T03:14:51.167Z,4.60
2018-06-19T03:17:19.284Z,4.40
2018-06-19T03:19:47.408Z,4.70
2018-06-19T03:22:15.521Z,4.70
2018-06-19T03:24:43.580Z,4.20
2018-06-19T03:27:11.844Z,4.57
2018-06-19T03:29:39.916Z,4.90
2018-06-19T03:32:07.981Z,4.80
2018-06-19T03:34:36.072Z,4.33
2018-06-19T03:37:04.128Z,4.67
2018-06-19T03:39:32.213Z,4.60
2018-06-19T03:42:00.259Z,4.90
2018-06-19T03:44:28.303Z,4.77
2018-06-19T03:46:56.356Z,4.73
2018-06-19T03:49:24.518Z,4.83
2018-06-19T03:51:52.676Z,4.97
2018-06-19T03:54:20.737Z,4.93
2018-06-19T03:56:48.844Z,4.43
2018-06-19T03:59:16.944Z,4.70
2018-06-19T04:01:45.052Z,4.60
2018-06-19T04:04:13.582Z,4.80
2018-06-19T04:06:41.705Z,4.43
2018-06-19T04:09:09.781Z,4.57
2018-06-19T04:11:38.072Z,4.87
2018-06-19T04:14:06.147Z,4.40
2018-06-19T04:16:34.327Z,4.87
2018-06-19T04:19:02.379Z,4.43
2018-06-19T04:21:30.611Z,5.00
2018-06-19T04:23:58.700Z,4.73
2018-06-19T04:26:26.744Z,5.37
2018-06-19T04:28:55.081Z,4.80
2018-06-19T04:31:23.149Z,5.10
2018-06-19T04:33:51.301Z,5.17
2018-06-19T04:36:19.413Z,5.00
2018-06-19T04:38:47.521Z,4.73
2018-06-19T04:41:15.855Z,4.70
2018-06-19T04:43:43.970Z,5.07
2018-06-19T04:46:12.074Z,5.07
2018-06-19T04:48:40.154Z,5.00
2018-06-19T04:51:08.224Z,5.10
2018-06-19T04:53:36.327Z,5.20
2018-06-19T04:56:04.572Z,5.20
2018-06-19T04:58:32.427Z,5.40
2018-06-19T05:01:00.271Z,5.13
2018-06-19T05:03:28.349Z,4.80
2018-06-19T05:05:56.473Z,5.50
2018-06-19T05:08:24.724Z,5.30
2018-06-19T05:10:52.816Z,5.33
2018-06-19T05:13:20.995Z,5.40
2018-06-19T05:15:49.068Z,5.40
2018-06-19T05:18:17.192Z,5.37
2018-06-19T05:20:45.308Z,5.60
2018-06-19T05:23:13.207Z,5.40
2018-06-19T05:25:41.321Z,5.47
2018-06-19T05:28:09.393Z,5.50
2018-06-19T05:30:37.476Z,5.23
2018-06-19T05:33:05.692Z,5.23
2018-06-19T05:35:33.863Z,5.23
2018-06-19T05:38:01.976Z,5.60
2018-06-19T05:40:30.064Z,5.40
2018-06-19T05:42:58.224Z,5.20
2018-06-19T05:45:26.284Z,5.30
2018-06-19T05:47:54.350Z,5.40
2018-06-19T05:50:22.419Z,5.23
2018-06-19T05:52:50.656Z,4.70
2018-06-19T05:55:18.742Z,5.50
2018-06-19T05:57:47.029Z,5.23
2018-06-19T06:00:15.317Z,5.17
2018-06-19T06:02:43.453Z,5.53
2018-06-19T06:05:11.533Z,5.77
2018-06-19T06:07:39.592Z,5.07
2018-06-19T06:10:07.659Z,5.20
2018-06-19T06:12:35.735Z,4.77
2018-06-19T06:15:03.832Z,4.93
2018-06-19T06:17:31.962Z,4.87
2018-06-19T06:20:00.055Z,5.07
2018-06-19T06:22:28.143Z,5.27
2018-06-19T06:24:56.440Z,4.77
2018-06-19T06:27:24.498Z,5.20
2018-06-19T06:29:52.696Z,5.43
2018-06-19T06:32:20.812Z,4.90
2018-06-19T06:34:48.974Z,4.60
2018-06-19T06:37:17.122Z,4.90
2018-06-19T06:39:45.249Z,4.80
2018-06-19T06:42:13.457Z,4.83
2018-06-19T06:44:41.535Z,4.77
2018-06-19T06:47:09.616Z,4.70
2018-06-19T06:49:37.730Z,4.57
2018-06-19T06:52:05.954Z,4.80
2018-06-19T06:54:34.116Z,4.87
2018-06-19T06:57:02.232Z,4.77
2018-06-19T06:59:31.001Z,4.73
2018-06-19T07:01:59.064Z,4.90
2018-06-19T07:04:27.352Z,5.13
2018-06-19T07:06:55.420Z,4.33
2018-06-19T07:09:23.536Z,4.27
2018-06-19T07:11:51.615Z,4.40
2018-06-19T07:14:19.731Z,4.37
2018-06-19T07:16:47.947Z,4.30
2018-06-19T07:19:16.069Z,4.07
2018-06-19T07:21:44.489Z,4.13
2018-06-19T07:24:12.695Z,4.37
2018-06-19T07:26:40.768Z,4.37
2018-06-19T07:29:08.921Z,4.17
2018-06-19T07:31:37.058Z,3.77
2018-06-19T07:34:05.140Z,3.90
2018-06-19T07:36:33.064Z,4.03
2018-06-19T07:39:01.128Z,4.23
2018-06-19T07:41:29.209Z,4.23
2018-06-19T07:43:57.471Z,3.90
2018-06-19T07:46:25.487Z,4.20
2018-06-19T07:48:53.696Z,3.50
2018-06-19T07:51:21.800Z,4.10
2018-06-19T07:53:49.913Z,4.00
2018-06-19T07:56:18.029Z,4.33
2018-06-19T07:58:46.149Z,3.97
2018-06-19T08:01:14.314Z,3.90
2018-06-19T08:03:42.426Z,3.80
2018-06-19T08:06:10.484Z,3.60
2018-06-19T08:08:38.539Z,3.70
2018-06-19T08:11:06.600Z,3.63
2018-06-19T08:13:34.681Z,3.60
2018-06-19T08:16:02.742Z,3.43
2018-06-19T08:18:30.817Z,3.60
2018-06-19T08:20:58.896Z,4.20
2018-06-19T08:23:26.964Z,3.83
2018-06-19T08:25:55.060Z,3.63
2018-06-19T08:28:23.200Z,3.47
2018-06-19T08:30:51.280Z,3.63
2018-06-19T08:33:19.381Z,3.67
2018-06-19T08:35:47.513Z,3.50
2018-06-19T08:38:15.658Z,3.87
2018-06-19T08:40:43.962Z,3.60
2018-06-19T08:43:12.017Z,3.70
2018-06-19T08:45:40.081Z,3.30
2018-06-19T08:48:08.156Z,3.43
2018-06-19T08:50:36.204Z,3.30
2018-06-19T08:53:04.305Z,3.53
2018-06-19T08:55:32.373Z,3.40
2018-06-19T08:58:00.430Z,3.63
2018-06-19T09:00:28.517Z,3.67
2018-06-19T09:02:56.583Z,3.30
2018-06-19T09:05:24.646Z,3.43
2018-06-19T09:07:52.810Z,3.23
2018-06-19T09:10:20.955Z,3.60
2018-06-19T09:12:49.037Z,3.43
2018-06-19T09:15:17.125Z,3.53
2018-06-19T09:17:45.463Z,3.40
2018-06-19T09:20:13.600Z,3.27
2018-06-19T09:22:41.620Z,3.40
2018-06-19T09:25:09.923Z,2.93
2018-06-19T09:27:37.992Z,3.27
2018-06-19T09:30:06.069Z,3.00
2018-06-19T09:32:34.430Z,3.33
2018-06-19T09:35:02.473Z,3.20
2018-06-19T09:37:30.540Z,2.90
2018-06-19T09:39:58.608Z,2.87
2018-06-19T09:42:26.673Z,3.00
2018-06-19T09:44:54.742Z,3.03
2018-06-19T09:47:22.889Z,3.50
2018-06-19T09:49:51.056Z,3.10
2018-06-19T09:52:19.128Z,3.00
2018-06-19T09:54:47.241Z,3.27
2018-06-19T09:57:15.446Z,2.80
2018-06-19T09:59:43.739Z,2.90
2018-06-19T10:02:12.514Z,3.17
2018-06-19T10:04:40.568Z,2.97
2018-06-19T10:07:08.629Z,3.40
2018-06-19T10:09:36.768Z,3.30
2018-06-19T10:12:04.900Z,3.00
2018-06-19T10:14:32.893Z,3.10
2018-06-19T10:17:01.032Z,3.43
2018-06-19T10:19:29.235Z,3.00
2018-06-19T10:21:57.386Z,3.27
2018-06-19T10:24:25.637Z,3.10
2018-06-19T10:26:53.764Z,3.63
2018-06-19T10:29:21.949Z,3.00
2018-06-19T10:31:51.141Z,3.47
2018-06-19T10:34:19.442Z,3.80
2018-06-19T10:36:47.623Z,4.13
2018-06-19T10:39:15.877Z,3.90
2018-06-19T10:41:44.356Z,4.17
2018-06-19T10:44:12.483Z,4.00
2018-06-19T10:46:40.633Z,3.93
2018-06-19T10:49:08.721Z,3.63
2018-06-19T10:51:36.796Z,4.10
2018-06-19T10:54:05.060Z,3.83
2018-06-19T10:56:33.188Z,4.00
2018-06-19T10:59:01.361Z,3.90
2018-06-19T11:01:29.348Z,3.70
2018-06-19T11:03:57.447Z,4.17
2018-06-19T11:06:25.652Z,4.60
2018-06-19T11:08:54.222Z,4.13
2018-06-19T11:11:22.352Z,4.80
2018-06-19T11:13:50.480Z,5.07
2018-06-19T11:16:18.780Z,4.33
2018-06-19T11:18:46.918Z,4.43
2018-06-19T11:21:15.026Z,4.60
2018-06-19T11:23:42.993Z,4.73
2018-06-19T11:26:11.077Z,4.77
2018-06-19T11:28:39.349Z,4.83
2018-06-19T11:31:07.600Z,4.87
2018-06-19T11:33:35.677Z,4.93
2018-06-19T11:36:03.809Z,5.07
2018-06-19T11:38:31.940Z,5.43
2018-06-19T11:40:59.989Z,5.10
2018-06-19T11:43:28.089Z,5.67
2018-06-19T11:45:56.160Z,5.30
2018-06-19T11:48:24.224Z,5.87
2018-06-19T11:50:52.351Z,5.40
2018-06-19T11:53:20.409Z,5.17
2018-06-19T11:55:48.508Z,5.13
2018-06-19T11:58:16.596Z,5.03
2018-06-19T12:00:44.545Z,5.30
2018-06-19T12:03:12.653Z,5.10
2018-06-19T12:05:40.904Z,5.17
2018-06-19T12:08:09.999Z,5.60
2018-06-19T12:10:38.170Z,5.80
2018-06-19T12:13:06.200Z,6.50
2018-06-19T12:15:34.352Z,7.20
2018-06-19T12:18:02.408Z,7.10
2018-06-19T12:20:30.491Z,6.80
2018-06-19T12:22:58.847Z,6.90
2018-06-19T12:25:26.934Z,7.37
2018-06-19T12:27:55.212Z,6.80
2018-06-19T12:30:23.344Z,7.67
2018-06-19T12:32:58.076Z,7.17
2018-06-19T12:35:26.153Z,6.43
2018-06-19T12:37:54.233Z,5.60
2018-06-19T12:40:22.333Z,6.70
2018-06-19T12:42:50.403Z,6.03
2018-06-19T12:45:18.489Z,5.80
2018-06-19T12:47:46.577Z,7.27
2018-06-19T12:50:36.764Z,6.67
2018-06-19T12:53:17.332Z,6.00
2018-06-19T12:55:57.500Z,6.80
2018-06-19T12:58:25.570Z,5.73
2018-06-19T13:00:53.656Z,6.10
2018-06-19T13:03:33.355Z,6.83
2018-06-19T13:06:12.908Z,5.30
2018-06-19T13:08:41.008Z,4.83
2018-06-19T13:11:09.540Z,6.00
2018-06-19T13:13:43.136Z,5.93
2018-06-19T14:38:21.530Z,2.90
2018-06-19T14:40:49.703Z,3.60
2018-06-19T14:43:17.781Z,2.83
2018-06-19T14:45:45.852Z,3.20
2018-06-19T14:48:13.811Z,3.00
2018-06-19T14:50:47.126Z,3.13
2018-06-19T14:53:15.312Z,3.07
2018-06-19T14:55:43.441Z,3.20
2018-06-19T14:58:11.451Z,3.20
2018-06-19T15:00:39.672Z,3.57
2018-06-19T15:03:08.001Z,3.10
2018-06-19T15:05:37.312Z,2.97
2018-06-19T15:08:06.509Z,3.33
2018-06-19T15:10:34.687Z,3.00
2018-06-19T15:13:02.740Z,3.47
2018-06-19T15:15:30.850Z,2.97
2018-06-19T15:17:58.896Z,2.70
2018-06-19T15:20:26.989Z,2.50
2018-06-19T15:22:55.077Z,2.40
2018-06-19T15:25:23.133Z,2.53
2018-06-19T15:27:51.310Z,3.10
2018-06-19T15:30:19.404Z,2.43
2018-06-19T15:32:47.521Z,2.60
2018-06-19T15:35:15.608Z,2.70
2018-06-19T15:37:43.755Z,2.67
2018-06-19T15:40:11.949Z,2.63
2018-06-19T15:42:40.217Z,3.03
2018-06-19T15:45:08.355Z,2.23
2018-06-19T15:47:36.528Z,2.60
2018-06-19T15:50:04.944Z,2.10
2018-06-19T15:52:33.037Z,2.40
2018-06-19T15:55:01.104Z,2.47
2018-06-19T15:57:29.194Z,2.20
2018-06-19T15:59:57.264Z,2.23
2018-06-19T16:02:25.320Z,2.13
2018-06-19T16:04:53.423Z,2.47
2018-06-19T16:07:21.536Z,2.23
2018-06-19T16:09:49.714Z,1.97
2018-06-19T16:12:17.769Z,2.60
2018-06-19T16:14:45.935Z,2.57
2018-06-19T16:17:14.038Z,2.00
2018-06-19T16:19:42.217Z,2.20
2018-06-19T16:22:10.525Z,2.37
2018-06-19T16:24:38.732Z,2.03
2018-06-19T16:27:06.883Z,1.90
2018-06-19T16:29:35.152Z,1.90
2018-06-19T16:32:03.291Z,1.93
2018-06-19T16:34:31.363Z,2.27
2018-06-19T16:36:59.561Z,2.10
2018-06-19T16:39:27.629Z,2.00
2018-06-19T16:41:55.716Z,1.90
2018-06-19T16:44:23.852Z,1.80
2018-06-19T16:46:52.017Z,2.07
2018-06-19T16:49:20.087Z,2.30
2018-06-19T16:51:48.141Z,2.03
2018-06-19T16:54:16.217Z,1.67
2018-06-19T16:56:44.292Z,2.20
2018-06-19T16:59:12.356Z,2.10
2018-06-19T17:01:40.252Z,1.73
2018-06-19T17:04:08.420Z,1.93
2018-06-19T17:06:36.555Z,2.03
2018-06-19T17:09:06.672Z,1.97
2018-06-19T17:11:34.850Z,1.53
2018-06-19T17:14:03.032Z,1.77
2018-06-19T17:16:31.120Z,2.43
2018-06-19T17:18:59.302Z,1.87
2018-06-19T17:21:27.459Z,1.70
2018-06-19T17:23:55.486Z,1.90
2018-06-19T17:26:23.577Z,1.60
2018-06-19T17:28:51.640Z,1.83
2018-06-19T17:31:19.752Z,1.60
2018-06-19T17:33:47.825Z,1.50
2018-06-19T17:36:15.894Z,2.10
2018-06-19T17:38:44.084Z,1.93
2018-06-19T17:41:12.268Z,1.67
2018-06-19T17:43:40.460Z,1.90
2018-06-19T17:46:08.576Z,1.70
2018-06-19T17:48:36.733Z,1.53
2018-06-19T17:51:06.108Z,1.80
2018-06-19T17:53:34.180Z,1.90
2018-06-19T17:56:02.237Z,1.80
2018-06-19T17:58:30.320Z,2.10
2018-06-19T18:00:58.413Z,1.70
2018-06-19T18:03:26.466Z,1.90
2018-06-19T18:05:54.616Z,2.03
2018-06-19T18:08:22.804Z,1.73
2018-06-19T18:10:50.973Z,1.70
2018-06-19T18:13:19.039Z,1.70
2018-06-19T18:15:47.196Z,1.63
2018-06-19T18:18:15.371Z,1.93
2018-06-19T18:20:43.436Z,1.87
2018-06-19T18:23:11.535Z,1.57
2018-06-19T18:25:39.633Z,1.90
2018-06-19T18:28:07.908Z,2.10
2018-06-19T18:30:36.072Z,1.67
2018-06-19T18:33:04.144Z,1.70
2018-06-19T18:35:32.208Z,2.20
2018-06-19T18:38:00.273Z,1.90
2018-06-19T18:40:28.425Z,1.80
2018-06-19T18:42:56.583Z,1.97
2018-06-19T18:45:24.680Z,1.77
2018-06-19T18:47:52.741Z,1.73
2018-06-19T18:50:20.922Z,1.73
2018-06-19T18:52:48.997Z,1.80
2018-06-19T18:55:17.102Z,1.70
2018-06-19T18:57:45.176Z,1.80
2018-06-19T19:00:13.386Z,2.00
2018-06-19T19:02:41.564Z,2.20
2018-06-19T19:05:09.672Z,1.93
2018-06-19T19:07:37.770Z,1.97
2018-06-19T19:11:11.313Z,1.77
2018-06-19T19:13:39.433Z,1.63
2018-06-19T19:16:12.982Z,2.20
2018-06-19T19:18:46.497Z,1.70
2018-06-19T19:21:14.386Z,1.77
2018-06-19T19:23:42.501Z,1.97
2018-06-19T19:26:10.551Z,1.80
2018-06-19T19:28:44.069Z,2.20
2018-06-19T19:31:12.196Z,1.90
2018-06-19T19:33:40.281Z,2.10
2018-06-19T19:36:12.717Z,2.20
2018-06-19T19:38:46.386Z,1.90
2018-06-19T19:41:14.512Z,2.23
2018-06-19T19:43:42.624Z,2.10
2018-06-19T19:46:14.952Z,2.00
2018-06-19T19:48:48.629Z,2.03
2018-06-19T19:51:16.692Z,1.90
2018-06-19T19:53:44.768Z,1.97
2018-06-19T19:56:18.510Z,2.20
2018-06-19T19:58:50.028Z,2.10
2018-06-19T20:01:18.720Z,1.73
2018-06-19T20:03:47.203Z,2.00
2018-06-19T20:06:15.361Z,2.00
2018-06-19T20:08:43.408Z,2.07
2018-06-19T20:11:11.482Z,1.93
2018-06-19T20:13:39.708Z,2.00
2018-06-19T20:16:07.781Z,1.73
2018-06-19T20:18:36.008Z,2.07
2018-06-19T20:21:04.211Z,1.87
2018-06-19T20:23:32.277Z,2.10
2018-06-19T20:26:00.484Z,2.03
2018-06-19T20:28:28.528Z,1.90
2018-06-19T20:30:56.741Z,2.07
2018-06-19T20:33:24.828Z,1.97
2018-06-19T20:35:52.920Z,2.10
2018-06-19T20:38:21.009Z,1.80
2018-06-19T20:40:49.154Z,2.00
2018-06-19T20:43:17.237Z,2.00
2018-06-19T20:45:45.270Z,1.77
2018-06-19T20:48:13.402Z,2.00
2018-06-19T20:50:41.536Z,1.80
2018-06-19T20:53:09.608Z,2.00
2018-06-19T20:55:37.716Z,2.10
2018-06-19T20:58:05.999Z,2.10
2018-06-19T21:00:34.062Z,2.10
2018-06-19T21:03:02.145Z,2.00
2018-06-19T21:05:30.242Z,2.10
2018-06-19T21:07:58.304Z,2.20
2018-06-19T21:10:26.376Z,2.20
2018-06-19T21:12:54.490Z,1.90
2018-06-19T21:15:22.556Z,1.70
2018-06-19T21:17:50.628Z,2.20
2018-06-19T21:20:18.771Z,2.20
2018-06-19T21:22:46.832Z,2.20
2018-06-19T21:25:15.039Z,2.00
2018-06-19T21:27:43.136Z,2.10
2018-06-19T21:30:11.226Z,2.13
2018-06-19T21:32:39.372Z,1.73
2018-06-19T21:35:07.492Z,2.20
2018-06-19T21:37:35.625Z,2.00
2018-06-19T21:40:03.777Z,1.83
2018-06-19T21:42:31.936Z,1.93
2018-06-19T21:44:59.984Z,1.70
2018-06-19T21:47:28.086Z,2.20
2018-06-19T21:49:56.136Z,2.13
2018-06-19T21:52:24.248Z,2.20
2018-06-19T21:54:52.457Z,1.90
2018-06-19T21:57:20.575Z,1.90
2018-06-19T21:59:48.640Z,2.10
2018-06-19T22:02:22.040Z,1.77
2018-06-19T22:04:50.088Z,2.23
2018-06-19T22:07:18.196Z,2.13
2018-06-19T22:09:46.260Z,2.37
2018-06-19T22:12:14.356Z,2.13
2018-06-19T22:14:42.456Z,1.80
2018-06-19T22:17:10.537Z,2.00
2018-06-19T22:19:38.685Z,2.10
2018-06-19T22:22:06.828Z,1.77
2018-06-19T22:24:34.935Z,2.00
2018-06-19T22:27:03.012Z,1.90
2018-06-19T22:29:31.065Z,2.00
2018-06-19T22:31:59.147Z,2.13
2018-06-19T22:34:27.224Z,1.97
2018-06-19T22:36:55.296Z,2.00
2018-06-19T22:39:23.356Z,1.90
2018-06-19T22:41:51.463Z,2.23
2018-06-19T22:44:19.544Z,1.90
2018-06-19T22:46:47.608Z,1.80
2018-06-19T22:49:15.687Z,2.07
2018-06-19T22:51:43.763Z,2.20
2018-06-19T22:54:11.680Z,1.80
2018-06-19T22:56:39.773Z,2.17
2018-06-19T22:59:07.925Z,2.03
2018-06-19T23:01:36.091Z,2.10
2018-06-19T23:04:04.383Z,2.23
2018-06-19T23:06:32.438Z,1.87
2018-06-19T23:09:00.518Z,2.00
2018-06-19T23:11:28.604Z,2.27
2018-06-19T23:13:56.672Z,2.00
2018-06-19T23:16:24.728Z,2.13
2018-06-19T23:18:52.841Z,1.93
2018-06-19T23:21:20.892Z,2.00
2018-06-19T23:23:49.005Z,2.13
2018-06-19T23:26:17.090Z,2.20
2018-06-19T23:28:45.152Z,2.13
2018-06-19T23:31:13.223Z,2.00
2018-06-19T23:33:41.281Z,2.20
2018-06-19T23:36:09.231Z,1.97
2018-06-19T23:38:37.330Z,1.70
2018-06-19T23:41:05.464Z,2.10
2018-06-19T23:43:33.533Z,2.03
2018-06-19T23:46:01.601Z,1.87
2018-06-19T23:48:29.659Z,2.03
2018-06-19T23:50:57.724Z,2.10
2018-06-19T23:53:25.785Z,1.90
2018-06-19T23:55:53.836Z,2.17
2018-06-19T23:58:21.924Z,2.07
